Kezdőlap
METAR-TAF:

METAR-TAF

Repülőterek :

Forest City, Iowa, Amerikai Egyesült Államok

földrajzi szélesség: 43-14-05N, földrajzi hosszúság: 093-37-27W, magasság: 375 m

Jelenlegi meteorológiai megfigyelések

A jelentés 16 perccel ezelõtt készült, 17:15 UTC
Északnyugati szél 17 kt széllökések: 21 kt
Hőmérséklet 10°C
Páratartalom 66%
Légköri nyomás 1023 hPa
Látótávolság: 16.1 km
Szakadozott felhőzet 3000 lábon
Szakadozott felhőzet 3600 lábon
Borult 4600 lábon

METAR: KFXY 011715Z AUTO 32017G21KT 10SM BKN030 BKN036 OVC046 10/04 A3020 RMK AO2

Idő: 12:31 (17:31 UTC)


TAF: hiányzik

Meteorológiai megfigyelések és előrejelzések több, mint 4000 repülőtéren (METAR és TAF jelentéseket).

A térképen piros és sárga pontok jelzik az elérhető meteorológiai állomásokat.

Mozgassa az egeret a pont fölött, hogy megjelenjen az állomás neve.

Azután kattintson az időjárási megfigyelések és előrejelzések megtekintéséhez.

A térkép megváltoztatása: kattintson a fekete keresztel jelölt zöld gombra ráközelítéshez, a vonallal jelölt zöld gombra távolításhoz, vagy a zöld nyilakra a szomszédos térképek eléréséhez.


METAR-TAF: